Time;durP1;ratioP1;P1;durP2;ratioP2;P2;SDS_P1;SDS_P2;PMS_P1;PMS_P2;Temp;Humidity;BMP_temperature;BMP_pressure;BME280_temperature;BME280_humidity;BME280_pressure;Samples;Min_cycle;Max_cycle;Signal;HPM_P1;HPM_P2
2023/01/31 00:00:50;;;;;;;1.63;1.52;;;3.90;99.90;;;;;;5092308;28;20228;-91
2023/01/31 00:03:18;;;;;;;3.08;1.98;;;3.80;99.90;;;;;;5092084;28;20231;-93
2023/01/31 00:05:46;;;;;;;1.40;1.38;;;3.60;99.90;;;;;;5090972;28;20208;-93
2023/01/31 00:08:15;;;;;;;2.40;2.10;;;3.50;99.90;;;;;;5093507;28;20303;-92
2023/01/31 00:10:43;;;;;;;1.90;1.67;;;3.40;99.90;;;;;;5091407;28;20212;-92
2023/01/31 00:13:13;;;;;;;2.15;1.92;;;3.40;99.90;;;;;;5090752;28;20223;-93
2023/01/31 00:15:41;;;;;;;2.58;1.95;;;3.40;99.90;;;;;;5091027;28;20200;-93
2023/01/31 00:18:09;;;;;;;2.25;2.05;;;3.40;99.90;;;;;;5091118;28;20256;-93
2023/01/31 00:20:38;;;;;;;1.70;1.60;;;3.40;99.90;;;;;;5090650;28;20232;-93
2023/01/31 00:23:06;;;;;;;1.75;1.65;;;3.40;99.90;;;;;;5091264;28;20232;-93
2023/01/31 00:25:34;;;;;;;1.90;1.58;;;3.50;99.90;;;;;;5090960;28;20242;-92
2023/01/31 00:28:02;;;;;;;1.65;1.55;;;3.40;99.90;;;;;;5090803;28;20209;-92
2023/01/31 00:30:33;;;;;;;2.70;2.50;;;3.50;99.90;;;;;;5090792;28;20243;-93
2023/01/31 00:33:01;;;;;;;3.22;2.25;;;3.50;99.90;;;;;;5090772;28;20220;-93
2023/01/31 00:35:30;;;;;;;2.00;1.90;;;3.50;99.90;;;;;;5091041;28;20210;-93
2023/01/31 00:37:59;;;;;;;2.80;2.58;;;3.50;99.90;;;;;;5091235;28;20208;-92
2023/01/31 00:40:27;;;;;;;3.80;2.78;;;3.50;99.90;;;;;;5089995;28;20220;-92
2023/01/31 00:42:55;;;;;;;2.95;2.55;;;3.50;99.90;;;;;;5090575;28;20226;-93
2023/01/31 00:45:23;;;;;;;2.60;2.40;;;3.50;99.90;;;;;;5091073;28;20284;-93
2023/01/31 00:47:53;;;;;;;3.13;2.83;;;3.50;99.90;;;;;;5090675;28;20276;-93
2023/01/31 00:50:22;;;;;;;5.20;3.00;;;3.50;99.90;;;;;;5090828;28;20215;-92
2023/01/31 00:52:50;;;;;;;5.35;2.58;;;3.50;99.90;;;;;;5090273;28;20214;-92
2023/01/31 00:55:19;;;;;;;3.60;2.83;;;3.50;99.90;;;;;;5090434;28;20267;-92
2023/01/31 00:57:47;;;;;;;2.10;2.00;;;3.60;99.90;;;;;;5090443;28;20239;-92
2023/01/31 01:00:17;;;;;;;2.40;2.20;;;3.60;99.90;;;;;;5090472;28;20315;-92
2023/01/31 01:02:45;;;;;;;5.32;3.15;;;3.60;99.90;;;;;;5090600;28;20208;-93
2023/01/31 01:05:15;;;;;;;2.72;2.53;;;3.70;99.90;;;;;;5090310;28;20204;-93
2023/01/31 01:07:43;;;;;;;2.90;2.67;;;3.70;99.90;;;;;;5090214;28;20221;-94
2023/01/31 01:10:12;;;;;;;3.60;3.00;;;3.70;99.90;;;;;;5090416;28;20205;-93
2023/01/31 01:12:40;;;;;;;2.67;2.47;;;3.70;99.90;;;;;;5089778;28;20205;-92
2023/01/31 01:15:09;;;;;;;2.65;2.45;;;3.80;99.90;;;;;;5090410;28;20215;-90
2023/01/31 01:17:38;;;;;;;2.42;2.22;;;3.80;99.90;;;;;;5090309;28;20205;-92
2023/01/31 01:20:07;;;;;;;2.30;2.10;;;3.90;99.90;;;;;;5094197;28;20224;-92
2023/01/31 01:22:37;;;;;;;4.35;1.80;;;3.90;99.90;;;;;;5094381;28;20220;-91
2023/01/31 01:25:07;;;;;;;4.78;2.65;;;3.90;99.90;;;;;;5094510;28;20201;-92
2023/01/31 01:27:35;;;;;;;2.70;2.47;;;3.90;99.90;;;;;;5094351;28;20227;-92
2023/01/31 01:30:05;;;;;;;3.50;2.75;;;3.90;99.90;;;;;;5094986;28;20201;-91
2023/01/31 01:32:36;;;;;;;2.05;1.90;;;3.90;99.90;;;;;;5096512;28;20207;-92
2023/01/31 01:35:05;;;;;;;2.88;2.58;;;3.80;99.90;;;;;;5096589;28;20199;-92
2023/01/31 01:37:33;;;;;;;2.78;2.58;;;3.80;99.90;;;;;;5096297;28;20228;-92
2023/01/31 01:40:04;;;;;;;2.88;2.63;;;3.80;99.90;;;;;;5096286;28;20224;-92
2023/01/31 01:42:35;;;;;;;2.92;2.72;;;3.70;99.90;;;;;;5096453;28;20264;-92
2023/01/31 01:45:14;;;;;;;2.55;2.35;;;3.70;99.90;;;;;;5096528;28;20288;-92
2023/01/31 01:47:48;;;;;;;4.32;2.53;;;3.70;99.90;;;;;;5096446;28;20271;-92
2023/01/31 01:50:23;;;;;;;3.30;2.70;;;3.60;99.90;;;;;;5095623;28;20256;-92
2023/01/31 01:52:54;;;;;;;2.90;2.47;;;3.60;99.90;;;;;;5095763;28;20214;-93
2023/01/31 01:55:31;;;;;;;1.70;1.60;;;3.60;99.90;;;;;;5096310;28;20228;-92
2023/01/31 01:58:06;;;;;;;3.20;2.55;;;3.60;99.90;;;;;;5095802;28;20200;-93
2023/01/31 02:00:37;;;;;;;2.58;2.08;;;3.70;99.90;;;;;;5095665;28;20220;-92
2023/01/31 02:03:07;;;;;;;4.53;2.05;;;3.70;99.90;;;;;;5095931;28;20228;-92
2023/01/31 02:05:40;;;;;;;3.15;2.80;;;3.80;99.90;;;;;;5095806;28;20204;-92
2023/01/31 02:08:10;;;;;;;3.13;2.38;;;3.70;99.90;;;;;;5095564;28;20296;-92
2023/01/31 02:10:47;;;;;;;3.13;2.35;;;3.60;99.90;;;;;;5095774;28;20263;-93
2023/01/31 02:13:16;;;;;;;1.55;1.42;;;3.50;99.90;;;;;;5095349;28;20228;-93
2023/01/31 02:15:45;;;;;;;2.33;2.13;;;3.40;99.90;;;;;;5095591;28;20288;-93
2023/01/31 02:18:14;;;;;;;2.30;2.10;;;3.30;99.90;;;;;;5095347;28;20296;-93
2023/01/31 02:21:24;;;;;;;3.53;2.60;;;3.30;99.90;;;;;;5095781;28;20248;-92
2023/01/31 02:24:19;;;;;;;3.08;2.75;;;3.30;99.90;;;;;;5090663;28;20263;-92
2023/01/31 02:27:09;;;;;;;2.13;1.98;;;3.30;99.90;;;;;;5107110;28;20215;-92
2023/01/31 02:30:13;;;;;;;2.72;2.45;;;3.30;99.90;;;;;;5093947;28;20208;-92
2023/01/31 02:32:52;;;;;;;4.55;2.88;;;3.40;99.90;;;;;;5057015;28;20200;-92
2023/01/31 02:35:31;;;;;;;2.63;2.42;;;3.30;99.90;;;;;;5095272;28;20208;-92
2023/01/31 02:38:11;;;;;;;4.18;2.70;;;3.30;99.90;;;;;;5094851;28;20251;-93
2023/01/31 02:40:44;;;;;;;3.70;2.90;;;3.30;99.90;;;;;;5094705;28;20212;-92
2023/01/31 02:43:19;;;;;;;3.05;2.58;;;3.20;99.90;;;;;;5094928;28;20216;-91
2023/01/31 02:45:52;;;;;;;7.32;3.28;;;3.20;99.90;;;;;;5095147;28;20237;-92
2023/01/31 02:48:33;;;;;;;2.78;2.50;;;3.10;99.90;;;;;;5095392;28;20295;-91
2023/01/31 02:51:08;;;;;;;3.17;2.45;;;3.10;99.90;;;;;;5094753;28;20291;-90
2023/01/31 02:53:42;;;;;;;5.40;2.78;;;3.10;99.90;;;;;;5094735;28;20230;-93
2023/01/31 02:56:18;;;;;;;3.35;3.05;;;3.10;99.90;;;;;;5098725;28;20207;-91
2023/01/31 02:58:53;;;;;;;3.15;2.42;;;3.20;99.90;;;;;;5095240;28;20200;-92
2023/01/31 03:01:26;;;;;;;2.30;2.10;;;3.30;99.90;;;;;;5094854;28;20223;-91
2023/01/31 03:03:58;;;;;;;4.10;2.92;;;3.30;99.90;;;;;;5094922;28;20224;-92
2023/01/31 03:06:58;;;;;;;3.15;2.75;;;3.40;99.90;;;;;;5094643;28;20216;-92
2023/01/31 03:09:36;;;;;;;2.38;2.17;;;3.40;99.90;;;;;;5094436;28;20204;-91
2023/01/31 03:12:20;;;;;;;2.08;1.98;;;3.40;99.90;;;;;;5094568;28;20208;-94
2023/01/31 03:15:01;;;;;;;3.28;2.90;;;3.50;99.90;;;;;;5094326;28;20256;-92
2023/01/31 03:17:35;;;;;;;2.67;2.47;;;3.50;99.90;;;;;;5094212;28;20214;-92
2023/01/31 03:20:11;;;;;;;2.25;2.05;;;3.60;99.90;;;;;;5094478;28;20315;-92
2023/01/31 03:22:43;;;;;;;1.95;1.80;;;3.70;99.90;;;;;;5094381;28;20226;-91
2023/01/31 03:25:15;;;;;;;4.63;2.03;;;3.70;99.90;;;;;;5093691;28;20269;-92
2023/01/31 03:27:48;;;;;;;2.50;2.30;;;3.70;99.90;;;;;;5094306;28;20208;-94
2023/01/31 03:30:21;;;;;;;20.88;2.63;;;3.80;99.90;;;;;;5094460;28;20200;-92
2023/01/31 03:32:53;;;;;;;2.33;2.13;;;3.80;99.90;;;;;;5094334;28;20200;-92
2023/01/31 03:35:27;;;;;;;3.03;2.28;;;3.80;99.90;;;;;;5094030;28;20268;-93
2023/01/31 03:38:00;;;;;;;2.03;1.83;;;3.80;99.90;;;;;;5093802;28;20228;-93
2023/01/31 03:40:34;;;;;;;2.40;2.15;;;3.80;99.90;;;;;;5093740;28;20214;-92
2023/01/31 03:43:11;;;;;;;2.38;1.92;;;3.80;99.90;;;;;;5093632;28;20228;-91
2023/01/31 03:45:45;;;;;;;3.08;2.20;;;3.80;99.90;;;;;;5093723;28;20196;-92
2023/01/31 03:48:17;;;;;;;2.28;1.90;;;3.80;99.90;;;;;;5093530;28;20294;-92
2023/01/31 03:50:51;;;;;;;2.53;2.30;;;3.80;99.90;;;;;;5093278;28;20243;-92
2023/01/31 03:53:25;;;;;;;2.53;1.95;;;3.80;99.90;;;;;;5093928;28;20335;-92
2023/01/31 03:55:57;;;;;;;2.10;1.92;;;3.80;99.90;;;;;;5093970;28;20208;-93
2023/01/31 03:58:30;;;;;;;1.75;1.65;;;3.80;99.90;;;;;;5093502;28;20264;-93
2023/01/31 04:01:02;;;;;;;2.92;2.00;;;3.80;99.90;;;;;;5093127;28;20299;-94
2023/01/31 04:03:37;;;;;;;1.98;1.88;;;3.90;99.90;;;;;;5093955;28;20224;-93
2023/01/31 04:06:08;;;;;;;2.38;1.70;;;3.90;99.90;;;;;;5093895;28;20215;-93
2023/01/31 04:08:36;;;;;;;3.28;2.25;;;3.90;99.90;;;;;;5093222;28;20208;-93
2023/01/31 04:11:08;;;;;;;2.60;2.05;;;3.90;99.90;;;;;;5093205;28;20228;-93
2023/01/31 04:13:36;;;;;;;2.72;2.03;;;4.00;99.90;;;;;;5093749;28;20315;-92
2023/01/31 04:16:05;;;;;;;1.95;1.73;;;4.00;99.90;;;;;;5093686;28;20207;-92
2023/01/31 04:18:34;;;;;;;1.17;1.13;;;4.00;99.90;;;;;;5093219;28;20291;-93
2023/01/31 04:21:07;;;;;;;2.42;1.83;;;4.00;99.90;;;;;;5093264;28;20212;-92
2023/01/31 04:23:35;;;;;;;4.80;2.20;;;4.00;99.90;;;;;;5093071;28;20239;-91
2023/01/31 04:26:04;;;;;;;1.50;1.40;;;4.10;99.90;;;;;;5093305;28;20200;-92
2023/01/31 04:28:32;;;;;;;1.63;1.52;;;4.00;99.90;;;;;;5093076;28;20216;-91
2023/01/31 04:31:00;;;;;;;2.08;1.85;;;4.10;99.90;;;;;;5093684;28;20291;-91
2023/01/31 04:33:29;;;;;;;2.22;1.85;;;4.10;99.90;;;;;;5093605;28;20220;-94
2023/01/31 04:35:57;;;;;;;2.95;1.85;;;4.10;99.90;;;;;;5093524;28;20268;-93
2023/01/31 04:38:27;;;;;;;2.45;1.80;;;4.10;99.90;;;;;;5092600;28;20211;-91
2023/01/31 04:40:55;;;;;;;1.98;1.70;;;4.10;99.90;;;;;;5092853;28;20208;-92
2023/01/31 04:43:24;;;;;;;2.17;1.98;;;4.10;99.90;;;;;;5093078;28;20225;-92
2023/01/31 04:45:52;;;;;;;2.80;1.83;;;4.00;99.90;;;;;;5093320;28;20200;-92
2023/01/31 04:48:20;;;;;;;2.58;1.60;;;4.00;99.90;;;;;;5092848;28;20207;-94
2023/01/31 04:50:49;;;;;;;6.43;2.80;;;4.00;99.90;;;;;;5092892;28;20242;-92
2023/01/31 04:53:17;;;;;;;3.03;2.47;;;4.00;99.90;;;;;;5094033;28;20222;-91
2023/01/31 04:55:47;;;;;;;19.52;2.33;;;4.00;99.90;;;;;;5097530;28;20212;-91
2023/01/31 04:58:15;;;;;;;1.80;1.45;;;4.00;99.90;;;;;;5097328;28;20204;-92
2023/01/31 05:00:44;;;;;;;6.35;2.25;;;4.00;99.90;;;;;;5097394;28;20243;-91
2023/01/31 05:03:13;;;;;;;2.15;1.90;;;4.10;99.90;;;;;;5096678;28;20228;-93
2023/01/31 05:05:41;;;;;;;2.42;1.88;;;4.10;99.90;;;;;;5097480;28;20295;-93
2023/01/31 05:08:10;;;;;;;2.15;1.95;;;4.10;99.90;;;;;;5097009;28;20311;-94
2023/01/31 05:10:38;;;;;;;2.13;1.63;;;4.10;99.90;;;;;;5097248;28;20306;-93
2023/01/31 05:13:09;;;;;;;5.20;1.83;;;4.00;99.90;;;;;;5096972;28;20228;-93
2023/01/31 05:15:37;;;;;;;1.58;1.48;;;4.00;99.90;;;;;;5096757;28;20218;-93
2023/01/31 05:18:05;;;;;;;3.75;1.80;;;4.00;99.90;;;;;;5097175;28;20208;-93
2023/01/31 05:20:38;;;;;;;1.88;1.73;;;4.00;99.90;;;;;;5096814;28;20264;-92
2023/01/31 05:23:07;;;;;;;2.33;2.13;;;4.00;99.90;;;;;;5096568;28;20228;-94
2023/01/31 05:25:36;;;;;;;1.67;1.52;;;3.90;99.90;;;;;;5096920;28;20247;-91
2023/01/31 05:28:05;;;;;;;2.97;2.40;;;4.00;99.90;;;;;;5096115;28;20206;-95
2023/01/31 05:30:36;;;;;;;1.63;1.33;;;4.00;99.90;;;;;;5096130;28;20232;-92
2023/01/31 05:33:05;;;;;;;1.10;1.10;;;3.90;99.90;;;;;;5096245;28;20224;-93
2023/01/31 05:35:33;;;;;;;0.95;0.93;;;3.90;99.90;;;;;;5096446;28;20205;-92
2023/01/31 05:38:01;;;;;;;3.95;1.90;;;4.00;99.90;;;;;;5095845;28;20200;-92
2023/01/31 05:40:30;;;;;;;3.65;1.50;;;4.10;99.90;;;;;;5096652;28;20238;-93
2023/01/31 05:43:00;;;;;;;0.93;0.93;;;4.10;99.90;;;;;;5095752;28;20220;-92
2023/01/31 05:45:29;;;;;;;3.30;1.27;;;4.20;99.90;;;;;;5100218;28;20209;-92
2023/01/31 05:48:00;;;;;;;1.05;1.00;;;4.40;99.90;;;;;;5096948;28;20212;-92
2023/01/31 05:50:29;;;;;;;1.95;1.20;;;4.50;99.90;;;;;;5096282;28;20201;-92
2023/01/31 05:52:59;;;;;;;1.05;0.95;;;4.60;99.90;;;;;;5096042;28;20235;-92
2023/01/31 05:55:28;;;;;;;1.02;0.98;;;4.60;99.90;;;;;;5096451;28;20243;-91
2023/01/31 05:57:56;;;;;;;1.25;1.08;;;4.60;99.90;;;;;;5095816;28;20210;-93
2023/01/31 06:00:25;;;;;;;1.05;0.90;;;4.60;99.90;;;;;;5095829;28;20200;-92
2023/01/31 06:02:56;;;;;;;1.35;1.08;;;4.50;99.90;;;;;;5095705;28;20231;-94
2023/01/31 06:05:26;;;;;;;2.97;1.52;;;4.50;99.90;;;;;;5096025;28;20204;-93
2023/01/31 06:07:55;;;;;;;1.40;1.20;;;4.40;99.90;;;;;;5095651;28;20200;-93
2023/01/31 06:10:24;;;;;;;1.10;1.00;;;4.40;99.90;;;;;;5095802;28;20296;-94
2023/01/31 06:12:52;;;;;;;1.05;0.95;;;4.40;99.90;;;;;;5095739;28;20235;-93
2023/01/31 06:15:20;;;;;;;18.77;1.52;;;4.40;99.90;;;;;;5095585;28;20204;-92
2023/01/31 06:17:49;;;;;;;1.10;1.10;;;4.40;99.90;;;;;;5095170;28;20196;-91
2023/01/31 06:20:17;;;;;;;1.80;1.70;;;4.40;99.90;;;;;;5095452;28;20329;-92
2023/01/31 06:22:47;;;;;;;4.43;2.22;;;4.40;99.90;;;;;;5094794;28;20289;-93
2023/01/31 06:25:16;;;;;;;4.30;1.80;;;4.30;99.90;;;;;;5095074;28;20204;-92
2023/01/31 06:27:45;;;;;;;2.20;1.63;;;4.20;99.90;;;;;;5094981;28;20197;-93
2023/01/31 06:30:14;;;;;;;3.83;2.03;;;4.20;99.90;;;;;;5095223;28;20215;-95
2023/01/31 06:32:42;;;;;;;3.15;2.15;;;4.10;99.90;;;;;;5095363;28;20239;-93
2023/01/31 06:35:11;;;;;;;2.35;1.95;;;4.10;99.90;;;;;;5094845;28;20203;-92
2023/01/31 06:37:39;;;;;;;3.15;2.30;;;4.10;99.90;;;;;;5094690;28;20291;-92
2023/01/31 06:40:10;;;;;;;4.47;2.03;;;4.10;99.90;;;;;;5094655;28;20298;-92
2023/01/31 06:42:39;;;;;;;5.00;2.42;;;4.10;99.90;;;;;;5094580;28;20216;-93
2023/01/31 06:45:09;;;;;;;3.53;2.53;;;4.10;99.90;;;;;;5097121;28;20271;-94
2023/01/31 06:47:37;;;;;;;3.75;2.40;;;4.10;99.90;;;;;;5095816;28;20390;-93
2023/01/31 06:50:07;;;;;;;4.38;2.10;;;4.10;99.90;;;;;;5096246;28;20247;-92
2023/01/31 06:52:36;;;;;;;2.35;1.90;;;4.10;99.90;;;;;;5094983;28;20210;-94
2023/01/31 06:55:04;;;;;;;2.13;1.88;;;4.10;99.90;;;;;;5094751;28;20204;-94
2023/01/31 06:57:34;;;;;;;1.77;1.52;;;4.10;99.90;;;;;;5094918;28;20296;-95
2023/01/31 07:00:03;;;;;;;2.80;2.15;;;4.10;99.90;;;;;;5094315;28;20209;-94
2023/01/31 07:02:31;;;;;;;4.43;1.77;;;4.10;99.90;;;;;;5094421;28;20205;-94
2023/01/31 07:05:00;;;;;;;2.05;1.85;;;4.10;99.90;;;;;;5094167;28;20294;-94
2023/01/31 07:07:28;;;;;;;2.65;1.48;;;4.20;99.90;;;;;;5094336;28;20281;-93
2023/01/31 07:09:57;;;;;;;2.25;1.58;;;4.20;99.90;;;;;;5094656;28;20264;-93
2023/01/31 07:12:26;;;;;;;2.85;2.00;;;4.20;99.90;;;;;;5094529;28;20211;-95
2023/01/31 07:14:56;;;;;;;2.45;1.95;;;4.20;99.90;;;;;;5094680;28;20311;-92
2023/01/31 07:17:24;;;;;;;2.97;1.88;;;4.10;99.90;;;;;;5093318;28;20207;-92
2023/01/31 07:19:52;;;;;;;4.78;2.20;;;4.20;99.90;;;;;;5094549;28;20231;-92
2023/01/31 07:22:21;;;;;;;1.92;1.80;;;4.20;99.90;;;;;;5094570;28;20231;-92
2023/01/31 07:24:49;;;;;;;1.77;1.50;;;4.20;99.90;;;;;;5097137;28;20325;-93
2023/01/31 07:27:18;;;;;;;3.05;2.05;;;4.20;99.90;;;;;;5093241;28;20204;-93
2023/01/31 07:29:46;;;;;;;2.95;1.73;;;4.30;99.90;;;;;;5093803;28;20204;-93
2023/01/31 07:32:16;;;;;;;2.17;1.65;;;4.30;99.90;;;;;;5094753;28;20212;-92
2023/01/31 07:34:45;;;;;;;3.40;1.63;;;4.30;99.90;;;;;;5094538;28;20224;-92
2023/01/31 07:37:13;;;;;;;1.95;1.40;;;4.40;99.90;;;;;;5093989;28;20267;-93
2023/01/31 07:39:41;;;;;;;1.58;1.48;;;4.40;99.90;;;;;;5093273;28;20208;-93
2023/01/31 07:42:10;;;;;;;3.75;1.90;;;4.50;99.90;;;;;;5093468;28;20208;-93
2023/01/31 07:44:44;;;;;;;2.08;1.88;;;4.50;99.90;;;;;;5093543;28;20220;-94
2023/01/31 07:47:12;;;;;;;4.97;1.90;;;4.50;99.90;;;;;;5093025;28;20191;-94
2023/01/31 07:49:42;;;;;;;2.58;1.65;;;4.50;99.90;;;;;;5093314;28;20208;-94
2023/01/31 07:52:10;;;;;;;4.47;1.38;;;4.60;99.90;;;;;;5092809;28;20205;-93
2023/01/31 07:54:38;;;;;;;3.03;1.65;;;4.60;99.90;;;;;;5092874;28;20234;-93
2023/01/31 07:57:07;;;;;;;1.30;1.27;;;4.60;99.90;;;;;;5093056;28;20219;-94
2023/01/31 07:59:35;;;;;;;12.80;1.45;;;4.70;99.90;;;;;;5093590;28;20212;-92
2023/01/31 08:04:50;;;;;;;1.42;1.08;;;4.80;99.90;;;;;;5093016;28;20275;-93
2023/01/31 08:07:19;;;;;;;1.25;1.15;;;4.90;99.90;;;;;;5094460;28;20212;-94
2023/01/31 08:09:49;;;;;;;2.15;1.52;;;4.90;99.90;;;;;;5093222;28;20210;-94
2023/01/31 08:12:17;;;;;;;2.13;1.05;;;5.00;99.90;;;;;;5093531;28;20196;-93
2023/01/31 08:14:45;;;;;;;1.77;1.30;;;5.00;99.90;;;;;;5093696;28;20217;-93
2023/01/31 08:17:14;;;;;;;1.60;1.27;;;5.00;99.90;;;;;;5093062;28;20215;-93
2023/01/31 08:19:42;;;;;;;1.88;1.00;;;4.90;99.90;;;;;;5093298;28;20267;-93
2023/01/31 08:22:12;;;;;;;3.95;0.98;;;4.90;99.90;;;;;;5093317;28;20222;-95
2023/01/31 08:24:41;;;;;;;1.13;0.80;;;4.90;99.90;;;;;;5092453;28;20216;-93
2023/01/31 08:27:09;;;;;;;2.15;1.50;;;5.00;99.90;;;;;;5093001;28;20265;-92
2023/01/31 08:29:38;;;;;;;1.67;1.00;;;5.10;99.90;;;;;;5092870;28;20267;-95
2023/01/31 08:32:06;;;;;;;2.25;1.08;;;5.20;99.90;;;;;;5092533;28;20211;-92
2023/01/31 08:34:35;;;;;;;0.95;0.95;;;5.30;99.90;;;;;;5092506;28;20265;-93
2023/01/31 08:37:03;;;;;;;0.80;0.70;;;5.40;99.90;;;;;;5098183;28;20204;-95
2023/01/31 08:39:33;;;;;;;2.92;1.00;;;5.40;99.90;;;;;;5093169;28;20208;-94
2023/01/31 08:42:01;;;;;;;2.22;1.60;;;5.40;99.90;;;;;;5093142;28;20196;-92
2023/01/31 08:44:29;;;;;;;6.47;1.48;;;5.50;99.90;;;;;;5092304;28;20281;-95
2023/01/31 08:47:00;;;;;;;1.65;1.30;;;5.50;99.90;;;;;;5092811;28;20203;-93
2023/01/31 08:49:29;;;;;;;1.42;1.20;;;5.50;99.90;;;;;;5093846;28;20234;-94
2023/01/31 08:51:58;;;;;;;1.33;0.80;;;5.60;99.90;;;;;;5092864;28;20212;-93
2023/01/31 08:54:26;;;;;;;1.10;1.05;;;5.60;99.90;;;;;;5093252;28;20255;-93
2023/01/31 08:56:56;;;;;;;3.15;1.35;;;5.50;99.90;;;;;;5092626;28;20208;-94
2023/01/31 08:59:24;;;;;;;2.13;1.55;;;5.50;99.90;;;;;;5092826;28;20203;-94
2023/01/31 09:01:53;;;;;;;1.77;1.63;;;5.50;99.90;;;;;;5093435;28;20222;-93
2023/01/31 09:04:21;;;;;;;3.35;1.95;;;5.30;99.90;;;;;;5092991;28;20220;-94
2023/01/31 09:06:49;;;;;;;2.53;2.10;;;5.20;99.90;;;;;;5092941;28;20219;-94
2023/01/31 09:09:18;;;;;;;2.38;1.98;;;5.00;99.90;;;;;;5092457;28;20212;-93
2023/01/31 09:11:46;;;;;;;3.20;2.90;;;4.90;99.90;;;;;;5093234;28;20205;-94
2023/01/31 09:14:16;;;;;;;3.78;2.75;;;4.90;99.90;;;;;;5093025;28;20220;-93
2023/01/31 09:16:45;;;;;;;2.42;2.22;;;4.80;99.90;;;;;;5092847;28;20304;-94
2023/01/31 09:19:14;;;;;;;3.22;2.92;;;4.80;99.90;;;;;;5093156;28;20211;-93
2023/01/31 09:21:42;;;;;;;14.48;3.38;;;4.70;99.90;;;;;;5093091;28;20200;-94
2023/01/31 09:24:10;;;;;;;2.60;2.40;;;4.60;99.90;;;;;;5092406;28;20232;-92
2023/01/31 09:26:39;;;;;;;4.82;3.25;;;4.60;99.90;;;;;;5092935;28;20291;-93
2023/01/31 09:29:07;;;;;;;2.38;1.95;;;4.70;99.90;;;;;;5092644;28;20201;-92
2023/01/31 09:31:37;;;;;;;13.27;2.30;;;4.70;99.90;;;;;;5092294;28;20196;-93
2023/01/31 09:34:05;;;;;;;8.43;3.00;;;4.70;99.90;;;;;;5093249;28;20244;-94
2023/01/31 09:36:34;;;;;;;2.88;2.47;;;4.70;99.90;;;;;;5092449;28;20253;-93
2023/01/31 09:39:02;;;;;;;3.58;2.78;;;4.70;99.90;;;;;;5093271;28;20304;-93
2023/01/31 09:41:37;;;;;;;4.28;2.58;;;4.70;99.90;;;;;;5096411;28;20212;-93
2023/01/31 09:44:10;;;;;;;2.75;2.45;;;4.70;99.90;;;;;;5097260;28;20262;-93
2023/01/31 09:46:44;;;;;;;2.85;2.15;;;4.70;99.90;;;;;;5096093;28;20327;-93
2023/01/31 09:49:21;;;;;;;3.53;2.08;;;4.70;99.90;;;;;;5096126;28;20299;-93
2023/01/31 09:51:55;;;;;;;3.30;2.40;;;4.70;99.90;;;;;;5096467;28;20299;-93
2023/01/31 09:54:29;;;;;;;7.18;2.55;;;4.70;99.90;;;;;;5095910;28;20217;-93
2023/01/31 09:57:10;;;;;;;4.32;3.03;;;4.70;99.90;;;;;;5095703;28;20221;-93
2023/01/31 09:59:47;;;;;;;9.27;3.20;;;4.70;99.90;;;;;;5096578;28;20200;-94
2023/01/31 10:02:36;;;;;;;3.63;2.88;;;4.70;99.90;;;;;;5096460;28;20208;-94
2023/01/31 10:05:21;;;;;;;2.80;2.28;;;4.70;99.90;;;;;;5096167;28;20332;-93
2023/01/31 10:08:01;;;;;;;2.97;2.30;;;4.70;99.90;;;;;;5096101;28;20216;-94
2023/01/31 10:10:36;;;;;;;2.70;2.33;;;4.80;99.90;;;;;;5095826;28;20234;-94
2023/01/31 10:13:11;;;;;;;3.47;2.40;;;5.00;99.90;;;;;;5095808;28;20220;-94
2023/01/31 10:15:45;;;;;;;4.30;2.60;;;5.00;99.90;;;;;;5095856;28;20208;-93
2023/01/31 10:18:21;;;;;;;2.47;2.10;;;5.00;99.90;;;;;;5095661;28;20208;-93
2023/01/31 10:20:52;;;;;;;4.03;2.28;;;5.20;99.90;;;;;;5095605;28;20239;-95
2023/01/31 10:23:27;;;;;;;2.75;1.80;;;5.20;99.90;;;;;;5095524;28;20248;-94
2023/01/31 10:26:00;;;;;;;4.78;2.45;;;5.20;99.90;;;;;;5095456;28;20226;-94
2023/01/31 10:28:35;;;;;;;5.50;2.33;;;5.20;99.90;;;;;;5095918;28;20227;-94
2023/01/31 10:31:11;;;;;;;3.60;2.30;;;5.20;99.90;;;;;;5095478;28;20227;-95
2023/01/31 10:33:48;;;;;;;2.47;1.90;;;5.20;99.90;;;;;;5095751;28;20227;-94
2023/01/31 10:36:24;;;;;;;3.63;2.15;;;5.10;99.90;;;;;;5095384;28;20210;-94
2023/01/31 10:39:02;;;;;;;3.45;2.00;;;5.10;99.90;;;;;;5095671;28;20196;-95
2023/01/31 10:41:39;;;;;;;1.90;1.63;;;5.10;99.90;;;;;;5095512;28;20267;-94
2023/01/31 10:44:18;;;;;;;5.20;2.88;;;5.10;99.90;;;;;;5095322;28;20221;-92
2023/01/31 10:46:47;;;;;;;2.55;1.77;;;5.10;99.90;;;;;;5094953;28;20202;-93
2023/01/31 10:49:21;;;;;;;4.10;2.30;;;5.10;99.90;;;;;;5095111;28;20200;-94
2023/01/31 10:52:03;;;;;;;2.35;1.77;;;5.10;99.90;;;;;;5093865;28;20213;-94
2023/01/31 10:54:47;;;;;;;1.90;1.77;;;5.10;99.90;;;;;;5095089;28;20220;-93
2023/01/31 10:57:16;;;;;;;2.33;1.77;;;5.20;99.90;;;;;;5094651;28;20200;-94
2023/01/31 10:59:47;;;;;;;8.20;2.38;;;5.30;99.90;;;;;;5094963;28;20206;-94
2023/01/31 11:02:21;;;;;;;2.20;2.00;;;5.30;99.90;;;;;;5095095;28;20201;-94
2023/01/31 11:04:53;;;;;;;1.75;1.60;;;5.30;99.90;;;;;;5095074;28;20232;-93
2023/01/31 11:07:22;;;;;;;2.30;2.10;;;5.40;99.90;;;;;;5094383;28;20209;-93
2023/01/31 11:09:53;;;;;;;7.00;2.35;;;5.50;99.90;;;;;;5094183;28;20204;-94
2023/01/31 11:12:22;;;;;;;2.55;2.03;;;5.60;99.90;;;;;;5095402;28;20214;-95
2023/01/31 11:15:06;;;;;;;5.65;2.10;;;5.70;99.90;;;;;;5095120;28;20220;-94
2023/01/31 11:17:37;;;;;;;6.93;2.17;;;5.80;99.90;;;;;;5097049;28;20226;-93
2023/01/31 11:20:19;;;;;;;1.45;1.35;;;5.90;99.90;;;;;;5096492;28;20239;-93
2023/01/31 11:22:49;;;;;;;1.65;1.55;;;6.30;99.90;;;;;;5094386;28;20200;-93
2023/01/31 11:25:20;;;;;;;3.40;1.83;;;6.40;99.90;;;;;;5094613;28;20227;-95
2023/01/31 11:27:52;;;;;;;2.80;2.00;;;6.60;99.90;;;;;;5094311;28;20295;-95
2023/01/31 11:30:25;;;;;;;5.35;2.10;;;6.70;99.90;;;;;;5099493;28;20232;-93
2023/01/31 11:32:54;;;;;;;1.80;1.50;;;6.90;99.90;;;;;;5095352;28;20224;-93
2023/01/31 11:35:27;;;;;;;3.55;1.70;;;6.90;99.90;;;;;;5094205;28;20204;-94
2023/01/31 11:37:57;;;;;;;2.80;1.92;;;6.90;99.90;;;;;;5094119;28;20228;-94
2023/01/31 11:40:31;;;;;;;1.95;1.58;;;7.00;99.90;;;;;;5094322;28;20258;-94
2023/01/31 11:43:02;;;;;;;4.25;2.70;;;7.30;99.90;;;;;;5093567;28;20232;-93
2023/01/31 11:45:31;;;;;;;2.10;1.90;;;7.40;99.90;;;;;;5093575;28;20269;-93
2023/01/31 11:48:10;;;;;;;2.88;2.22;;;7.40;99.90;;;;;;5093399;28;20283;-92
2023/01/31 11:50:43;;;;;;;4.07;2.05;;;7.50;99.90;;;;;;5093309;28;20211;-94
2023/01/31 11:53:18;;;;;;;2.25;1.60;;;7.70;99.90;;;;;;5093416;28;20303;-93
2023/01/31 11:55:48;;;;;;;1.73;1.55;;;7.20;99.90;;;;;;5093798;28;20196;-93
2023/01/31 11:58:20;;;;;;;4.68;3.17;;;6.90;99.90;;;;;;5093409;28;20210;-95
2023/01/31 12:01:01;;;;;;;3.28;2.33;;;6.60;99.90;;;;;;5094168;28;20298;-94
2023/01/31 12:03:30;;;;;;;3.67;2.00;;;6.50;99.90;;;;;;5093375;28;20243;-95
2023/01/31 12:06:05;;;;;;;5.10;2.55;;;6.70;99.90;;;;;;5093926;28;20248;-94
2023/01/31 12:08:36;;;;;;;6.00;2.10;;;6.60;99.90;;;;;;5093498;28;20196;-95
2023/01/31 12:11:07;;;;;;;4.03;1.77;;;6.60;99.90;;;;;;5093949;28;20287;-95
2023/01/31 12:13:47;;;;;;;2.08;1.73;;;6.50;99.90;;;;;;5096531;28;20251;-95
2023/01/31 12:16:19;;;;;;;3.10;2.20;;;6.40;99.90;;;;;;5094678;28;20255;-94
2023/01/31 12:19:12;;;;;;;2.22;1.63;;;6.40;99.90;;;;;;5093974;28;20214;-92
2023/01/31 12:21:54;;;;;;;2.45;2.22;;;6.20;99.90;;;;;;5093683;28;20291;-93
2023/01/31 12:24:36;;;;;;;4.13;2.65;;;6.00;99.90;;;;;;5093447;28;20227;-95
2023/01/31 12:27:17;;;;;;;15.40;2.22;;;5.90;99.90;;;;;;5093431;28;20220;-93
2023/01/31 12:30:26;;;;;;;2.97;2.03;;;5.90;99.90;;;;;;5093938;28;20231;-94
2023/01/31 12:33:23;;;;;;;6.53;2.70;;;5.80;99.90;;;;;;5085878;28;20226;-93
2023/01/31 12:36:07;;;;;;;5.07;3.00;;;5.80;99.90;;;;;;5093547;28;20238;-93
2023/01/31 12:39:03;;;;;;;8.80;3.75;;;5.70;99.90;;;;;;5092938;28;20196;-92
2023/01/31 12:41:36;;;;;;;5.43;3.15;;;5.70;99.90;;;;;;5092710;28;20254;-94
2023/01/31 12:44:29;;;;;;;5.82;3.58;;;5.60;99.90;;;;;;5092520;28;20234;-93
2023/01/31 12:47:15;;;;;;;3.40;2.42;;;5.50;99.90;;;;;;5090549;28;20239;-94
2023/01/31 12:50:12;;;;;;;2.30;2.10;;;5.60;99.90;;;;;;5092610;28;20289;-94
2023/01/31 12:52:53;;;;;;;2.78;2.22;;;5.60;99.90;;;;;;5092564;28;20204;-93
2023/01/31 12:55:32;;;;;;;5.43;2.22;;;5.60;99.90;;;;;;5092554;28;20276;-94
2023/01/31 12:58:21;;;;;;;4.63;2.20;;;5.60;99.90;;;;;;5092785;28;20211;-93
2023/01/31 13:00:58;;;;;;;3.72;2.17;;;5.60;99.90;;;;;;5092709;28;20295;-95
2023/01/31 13:03:37;;;;;;;4.05;2.00;;;5.60;99.90;;;;;;5092728;28;20235;-94
2023/01/31 13:06:14;;;;;;;2.35;2.15;;;5.60;99.90;;;;;;5092723;28;20311;-93
2023/01/31 13:08:46;;;;;;;8.55;2.05;;;5.60;99.90;;;;;;5092666;28;20204;-95
2023/01/31 13:11:39;;;;;;;2.10;1.90;;;5.70;99.90;;;;;;5092967;28;20291;-92
2023/01/31 13:14:13;;;;;;;1.58;1.48;;;5.70;99.90;;;;;;5094017;28;20228;-95
2023/01/31 13:16:44;;;;;;;2.38;2.03;;;5.70;99.90;;;;;;5097305;28;20198;-93
2023/01/31 13:19:18;;;;;;;3.30;2.17;;;5.70;99.90;;;;;;5097345;28;20219;-94
2023/01/31 13:21:50;;;;;;;4.10;2.08;;;5.70;99.90;;;;;;5097232;28;20235;-94
2023/01/31 13:24:23;;;;;;;3.30;1.83;;;5.60;99.90;;;;;;5096801;28;20236;-93
2023/01/31 13:26:58;;;;;;;5.88;2.53;;;5.60;99.90;;;;;;5096294;28;20312;-93